Time;durP1;ratioP1;P1;durP2;ratioP2;P2;SDS_P1;SDS_P2;PMS_P1;PMS_P2;Temp;Humidity;BMP_temperature;BMP_pressure;BME280_temperature;BME280_humidity;BME280_pressure;Samples;Min_cycle;Max_cycle;Signal;HPM_P1;HPM_P2
2023/04/27 00:02:19;;;;;;;;;8.00;5.00;;;;;;;;5041836;28;45431;-88
2023/04/27 00:04:44;;;;;;;;;7.00;7.00;;;;;;;;5059732;28;45353;-88
2023/04/27 00:07:09;;;;;;;;;2.00;2.00;;;;;;;;5059665;28;45364;-88
2023/04/27 00:09:34;;;;;;;;;7.67;5.00;;;;;;;;5059934;28;45597;-89
2023/04/27 00:12:00;;;;;;;;;3.67;3.67;;;;;;;;5041341;28;45436;-89
2023/04/27 00:14:27;;;;;;;;;6.00;3.00;;;;;;;;5059726;28;46185;-88
2023/04/27 00:16:52;;;;;;;;;4.00;4.00;;;;;;;;5042529;28;45634;-89
2023/04/27 00:19:17;;;;;;;;;7.00;4.00;;;;;;;;5001448;28;45341;-88
2023/04/27 00:21:42;;;;;;;;;3.67;1.33;;;;;;;;5001497;28;45567;-88
2023/04/27 00:24:08;;;;;;;;;7.00;4.67;;;;;;;;5001158;28;47058;-88
2023/04/27 00:26:33;;;;;;;;;7.00;5.00;;;;;;;;5019087;28;45367;-88
2023/04/27 00:28:58;;;;;;;;;6.33;4.00;;;;;;;;5026793;28;45588;-88
2023/04/27 00:31:23;;;;;;;;;4.67;4.00;;;;;;;;5039291;28;45193;-88
2023/04/27 00:33:48;;;;;;;;;7.67;4.67;;;;;;;;5019054;28;48091;-88
2023/04/27 00:36:14;;;;;;;;;4.00;3.67;;;;;;;;5020557;28;45473;-88
2023/04/27 00:38:39;;;;;;;;;7.67;4.00;;;;;;;;5020527;28;45293;-88
2023/04/27 00:41:06;;;;;;;;;7.50;4.50;;;;;;;;5019059;28;45345;-88
2023/04/27 00:43:31;;;;;;;;;6.25;3.75;;;;;;;;5001142;28;47352;-88
2023/04/27 00:45:58;;;;;;;;;8.50;3.25;;;;;;;;5018641;28;45370;-88
2023/04/27 00:48:23;;;;;;;;;4.25;4.00;;;;;;;;5020342;28;45787;-89
2023/04/27 00:50:49;;;;;;;;;9.25;3.75;;;;;;;;5020143;28;45429;-88
2023/04/27 00:53:14;;;;;;;;;3.75;3.75;;;;;;;;5018619;28;45630;-88
2023/04/27 00:55:39;;;;;;;;;6.50;3.75;;;;;;;;5018252;28;45455;-87
2023/04/27 00:58:07;;;;;;;;;5.00;3.75;;;;;;;;5038329;28;45742;-88
2023/04/27 01:00:37;;;;;;;;;9.00;4.00;;;;;;;;5038619;28;45575;-88
2023/04/27 01:03:03;;;;;;;;;5.00;4.00;;;;;;;;5038212;28;45690;-88
2023/04/27 01:05:29;;;;;;;;;4.50;4.00;;;;;;;;5032746;28;45459;-88
2023/04/27 01:07:54;;;;;;;;;6.50;6.00;;;;;;;;5031024;28;45319;-89
2023/04/27 01:10:19;;;;;;;;;4.00;4.00;;;;;;;;5019983;28;45278;-88
2023/04/27 01:12:45;;;;;;;;;3.00;3.00;;;;;;;;5038221;28;45262;-89
2023/04/27 01:15:10;;;;;;;;;8.67;4.67;;;;;;;;5020559;28;45892;-89
2023/04/27 01:17:35;;;;;;;;;7.33;4.00;;;;;;;;5020838;28;45227;-87
2023/04/27 01:20:01;;;;;;;;;3.00;3.00;;;;;;;;5018500;28;45165;-88
2023/04/27 01:22:26;;;;;;;;;4.25;3.00;;;;;;;;5018412;28;47165;-87
2023/04/27 01:24:52;;;;;;;;;3.00;2.00;;;;;;;;5018011;28;45232;-88
2023/04/27 01:27:17;;;;;;;;;3.50;3.50;;;;;;;;5014428;28;45340;-87
2023/04/27 01:29:43;;;;;;;;;4.00;2.00;;;;;;;;5038208;28;45559;-87
2023/04/27 01:32:08;;;;;;;;;6.75;4.50;;;;;;;;5020009;28;46908;-88
2023/04/27 01:34:33;;;;;;;;;3.50;2.00;;;;;;;;5037906;28;45483;-86
2023/04/27 01:36:59;;;;;;;;;3.00;2.00;;;;;;;;5026131;28;45409;-88
2023/04/27 01:39:24;;;;;;;;;3.00;3.00;;;;;;;;4999856;28;45575;-87
2023/04/27 01:41:49;;;;;;;;;4.67;3.67;;;;;;;;5000548;28;47681;-87
2023/04/27 01:44:15;;;;;;;;;3.00;3.00;;;;;;;;5017709;28;45388;-88
2023/04/27 01:46:40;;;;;;;;;4.50;4.50;;;;;;;;5018853;28;45306;-87
2023/04/27 01:49:05;;;;;;;;;7.00;3.00;;;;;;;;5000332;28;45247;-88
2023/04/27 01:51:31;;;;;;;;;4.00;2.33;;;;;;;;5006261;28;47855;-87
2023/04/27 01:53:57;;;;;;;;;5.50;5.00;;;;;;;;5018114;28;45341;-87
2023/04/27 01:56:22;;;;;;;;;3.50;2.50;;;;;;;;5017858;28;45296;-88
2023/04/27 01:58:47;;;;;;;;;3.67;3.00;;;;;;;;4999642;28;45234;-87
2023/04/27 02:01:12;;;;;;;;;4.00;3.00;;;;;;;;5003883;28;47126;-87
2023/04/27 02:03:37;;;;;;;;;7.33;2.33;;;;;;;;5019654;28;45813;-88
2023/04/27 02:06:02;;;;;;;;;4.33;1.67;;;;;;;;5036476;28;45351;-87
2023/04/27 02:08:28;;;;;;;;;8.75;3.25;;;;;;;;5019083;28;45374;-87
2023/04/27 02:10:53;;;;;;;;;3.00;3.00;;;;;;;;5018747;28;47268;-87
2023/04/27 02:13:18;;;;;;;;;4.67;2.00;;;;;;;;5016080;28;45877;-88
2023/04/27 02:15:43;;;;;;;;;3.00;3.00;;;;;;;;5017083;28;45446;-87
2023/04/27 02:18:09;;;;;;;;;3.33;2.00;;;;;;;;5019836;28;45400;-88
2023/04/27 02:20:34;;;;;;;;;6.00;3.00;;;;;;;;5037177;28;46200;-87
2023/04/27 02:23:01;;;;;;;;;3.50;3.50;;;;;;;;5036817;28;45260;-87
2023/04/27 02:25:26;;;;;;;;;7.75;4.00;;;;;;;;5036452;28;45277;-87
2023/04/27 02:27:51;;;;;;;;;1.75;1.00;;;;;;;;4999648;28;45454;-88
2023/04/27 02:30:16;;;;;;;;;6.33;4.00;;;;;;;;5030502;28;46411;-88
2023/04/27 02:32:42;;;;;;;;;6.00;4.00;;;;;;;;5018982;28;45381;-87
2023/04/27 02:35:08;;;;;;;;;3.00;3.00;;;;;;;;5036520;28;45270;-88
2023/04/27 02:37:34;;;;;;;;;3.00;2.75;;;;;;;;5000849;28;45297;-88
2023/04/27 02:39:59;;;;;;;;;4.00;2.50;;;;;;;;5017282;28;46796;-87
2023/04/27 02:42:24;;;;;;;;;3.00;3.00;;;;;;;;4999032;28;45593;-87
2023/04/27 02:44:50;;;;;;;;;11.00;4.00;;;;;;;;5017414;28;45383;-88
2023/04/27 02:47:15;;;;;;;;;6.00;3.00;;;;;;;;4999333;28;45560;-88
2023/04/27 02:49:40;;;;;;;;;2.67;2.67;;;;;;;;5007941;28;48241;-87
2023/04/27 02:52:05;;;;;;;;;5.00;2.00;;;;;;;;4999030;28;45461;-87
2023/04/27 02:54:31;;;;;;;;;7.00;3.67;;;;;;;;4999279;28;45377;-88
2023/04/27 02:56:56;;;;;;;;;6.00;4.50;;;;;;;;5016643;28;45587;-87
2023/04/27 02:59:21;;;;;;;;;3.00;3.00;;;;;;;;4998867;28;47247;-87
2023/04/27 03:01:46;;;;;;;;;5.25;3.25;;;;;;;;5013181;28;45541;-88
2023/04/27 03:04:13;;;;;;;;;4.25;3.75;;;;;;;;5035579;28;45352;-87
2023/04/27 03:06:39;;;;;;;;;7.75;3.00;;;;;;;;5035347;28;45245;-88
2023/04/27 03:09:04;;;;;;;;;4.25;3.00;;;;;;;;5036370;28;48053;-88
2023/04/27 03:11:29;;;;;;;;;7.25;3.00;;;;;;;;5007960;28;45256;-87
2023/04/27 03:13:55;;;;;;;;;4.00;4.00;;;;;;;;5036989;28;45286;-88
2023/04/27 03:16:20;;;;;;;;;2.75;2.75;;;;;;;;5005915;28;45280;-87
2023/04/27 03:18:45;;;;;;;;;5.33;3.67;;;;;;;;4998519;28;48350;-87
2023/04/27 03:21:11;;;;;;;;;6.33;3.67;;;;;;;;5015926;28;45444;-88
2023/04/27 03:23:37;;;;;;;;;8.50;4.00;;;;;;;;5016088;28;45195;-86
2023/04/27 03:26:09;;;;;;;;;7.00;5.25;;;;;;;;5016730;28;45436;-87
2023/04/27 03:28:34;;;;;;;;;12.25;6.50;;;;;;;;5017084;28;45356;-90
2023/04/27 03:31:00;;;;;;;;;9.25;8.00;;;;;;;;5017536;28;45226;-87
2023/04/27 03:33:27;;;;;;;;;8.75;7.00;;;;;;;;5018951;28;45389;-88
2023/04/27 03:35:56;;;;;;;;;10.50;7.75;;;;;;;;5027746;28;45167;-88
2023/04/27 03:38:21;;;;;;;;;8.75;7.25;;;;;;;;5031896;28;45503;-88
2023/04/27 03:40:47;;;;;;;;;13.00;8.00;;;;;;;;4999062;28;45339;-88
2023/04/27 03:43:12;;;;;;;;;14.67;9.00;;;;;;;;4999087;28;45350;-87
2023/04/27 03:45:37;;;;;;;;;10.00;7.00;;;;;;;;5015842;28;45361;-87
2023/04/27 03:48:02;;;;;;;;;9.00;8.00;;;;;;;;5017004;28;46207;-87
2023/04/27 03:50:27;;;;;;;;;12.50;6.75;;;;;;;;5017335;28;45361;-86
2023/04/27 03:52:53;;;;;;;;;6.67;2.67;;;;;;;;5005528;28;45386;-88
2023/04/27 03:55:18;;;;;;;;;10.33;6.67;;;;;;;;5036211;28;45321;-88
2023/04/27 03:57:43;;;;;;;;;9.00;5.33;;;;;;;;5016887;28;48213;-89
2023/04/27 04:00:11;;;;;;;;;9.00;7.33;;;;;;;;5018085;28;45470;-88
2023/04/27 04:02:37;;;;;;;;;8.25;6.75;;;;;;;;5023515;28;45369;-87
2023/04/27 04:05:02;;;;;;;;;8.00;7.00;;;;;;;;5017110;28;45523;-86
2023/04/27 04:07:27;;;;;;;;;5.50;4.00;;;;;;;;5035016;28;45435;-87
2023/04/27 04:09:52;;;;;;;;;13.33;7.00;;;;;;;;5017840;28;45911;-87
2023/04/27 04:12:18;;;;;;;;;9.00;6.67;;;;;;;;5035634;28;45265;-86
2023/04/27 04:14:43;;;;;;;;;7.67;6.00;;;;;;;;5036932;28;45206;-88
2023/04/27 04:17:09;;;;;;;;;6.50;5.25;;;;;;;;5021141;28;47354;-88
2023/04/27 04:19:35;;;;;;;;;11.50;4.00;;;;;;;;5021311;28;45494;-87
2023/04/27 04:22:00;;;;;;;;;6.75;4.00;;;;;;;;5038921;28;45459;-87
2023/04/27 04:24:25;;;;;;;;;6.33;3.00;;;;;;;;5021775;28;45399;-87
2023/04/27 04:26:50;;;;;;;;;7.00;7.00;;;;;;;;5019142;28;46576;-86
2023/04/27 04:29:16;;;;;;;;;7.67;4.67;;;;;;;;5029681;28;45813;-88
2023/04/27 04:31:41;;;;;;;;;6.33;5.33;;;;;;;;5020574;28;45374;-85
2023/04/27 04:34:07;;;;;;;;;10.00;5.50;;;;;;;;5023621;28;45664;-85
2023/04/27 04:36:32;;;;;;;;;7.75;6.50;;;;;;;;5018377;28;47104;-87
2023/04/27 04:38:58;;;;;;;;;8.67;6.00;;;;;;;;5001320;28;45634;-88
2023/04/27 04:41:23;;;;;;;;;5.50;5.50;;;;;;;;5019019;28;45448;-88
2023/04/27 04:43:48;;;;;;;;;7.25;4.00;;;;;;;;5018927;28;45301;-87
2023/04/27 04:46:14;;;;;;;;;7.25;6.00;;;;;;;;5019155;28;47296;-87
2023/04/27 04:48:39;;;;;;;;;8.00;6.25;;;;;;;;5001159;28;45353;-88
2023/04/27 04:51:05;;;;;;;;;11.67;7.00;;;;;;;;5039172;28;45348;-88
2023/04/27 04:53:31;;;;;;;;;7.25;5.00;;;;;;;;5037846;28;45460;-87
2023/04/27 04:55:56;;;;;;;;;9.25;7.75;;;;;;;;5038278;28;46451;-87
2023/04/27 04:58:21;;;;;;;;;13.00;8.00;;;;;;;;5038032;28;45171;-88
2023/04/27 05:00:46;;;;;;;;;4.67;4.67;;;;;;;;5020602;28;45274;-86
2023/04/27 05:03:12;;;;;;;;;12.33;9.00;;;;;;;;5031804;28;45532;-86
2023/04/27 05:05:37;;;;;;;;;13.00;8.33;;;;;;;;4999716;28;47135;-86
2023/04/27 05:08:02;;;;;;;;;7.67;6.00;;;;;;;;5018421;28;45431;-87
2023/04/27 05:10:27;;;;;;;;;12.00;7.00;;;;;;;;5000336;28;45409;-86
2023/04/27 05:12:53;;;;;;;;;9.00;7.67;;;;;;;;5020403;28;45309;-86
2023/04/27 05:15:18;;;;;;;;;10.67;8.33;;;;;;;;5019559;28;47022;-87
2023/04/27 05:17:43;;;;;;;;;6.00;6.00;;;;;;;;5019510;28;46594;-87
2023/04/27 05:20:08;;;;;;;;;8.00;7.67;;;;;;;;5004745;28;45331;-86
2023/04/27 05:22:34;;;;;;;;;9.00;7.00;;;;;;;;5000243;28;45505;-86
2023/04/27 05:24:59;;;;;;;;;8.25;6.00;;;;;;;;5028033;28;45485;-87
2023/04/27 05:27:25;;;;;;;;;12.50;7.25;;;;;;;;4999128;28;45643;-85
2023/04/27 05:29:50;;;;;;;;;13.25;9.75;;;;;;;;5032877;28;45298;-86
2023/04/27 05:32:15;;;;;;;;;7.25;3.25;;;;;;;;5032898;28;45381;-86
2023/04/27 05:34:42;;;;;;;;;12.33;7.33;;;;;;;;5017979;28;45511;-86
2023/04/27 05:37:07;;;;;;;;;13.00;6.00;;;;;;;;5020157;28;45853;-87
2023/04/27 05:39:33;;;;;;;;;16.00;9.00;;;;;;;;5037523;28;45364;-87
2023/04/27 05:41:58;;;;;;;;;6.00;6.00;;;;;;;;5037768;28;45483;-88
2023/04/27 05:44:27;;;;;;;;;7.00;7.00;;;;;;;;5036996;28;45361;-86
2023/04/27 05:46:52;;;;;;;;;9.50;7.00;;;;;;;;5036967;28;45894;-86
2023/04/27 05:49:17;;;;;;;;;8.00;6.67;;;;;;;;5037043;28;45289;-86
2023/04/27 05:51:42;;;;;;;;;6.67;6.67;;;;;;;;5019917;28;45281;-86
2023/04/27 05:54:07;;;;;;;;;13.33;5.33;;;;;;;;5018848;28;46981;-86
2023/04/27 05:56:33;;;;;;;;;5.33;4.00;;;;;;;;5037264;28;45251;-86
2023/04/27 05:58:58;;;;;;;;;8.33;7.00;;;;;;;;5030417;28;45236;-86
2023/04/27 06:01:23;;;;;;;;;12.00;7.67;;;;;;;;5023036;28;45290;-86
2023/04/27 06:03:48;;;;;;;;;6.33;6.00;;;;;;;;5037182;28;46878;-86
2023/04/27 06:06:13;;;;;;;;;7.67;6.00;;;;;;;;5000848;28;45421;-87
2023/04/27 06:08:39;;;;;;;;;6.00;6.00;;;;;;;;5020694;28;45210;-88
2023/04/27 06:11:04;;;;;;;;;7.67;6.00;;;;;;;;5037583;28;45418;-87
2023/04/27 06:13:30;;;;;;;;;7.75;6.00;;;;;;;;5019303;28;46568;-88
2023/04/27 06:15:55;;;;;;;;;4.75;4.75;;;;;;;;5019445;28;45526;-88
2023/04/27 06:18:20;;;;;;;;;7.33;7.00;;;;;;;;5018759;28;45242;-87
2023/04/27 06:20:46;;;;;;;;;6.33;5.33;;;;;;;;5022155;28;45631;-88
2023/04/27 06:23:11;;;;;;;;;6.33;3.00;;;;;;;;5038143;28;45661;-87
2023/04/27 06:25:38;;;;;;;;;10.67;7.67;;;;;;;;5024414;28;45641;-88
2023/04/27 06:28:04;;;;;;;;;8.75;7.00;;;;;;;;5018398;28;45238;-88
2023/04/27 06:30:29;;;;;;;;;7.33;6.00;;;;;;;;5037141;28;45421;-88
2023/04/27 06:32:54;;;;;;;;;9.50;7.00;;;;;;;;5036900;28;46558;-87
2023/04/27 06:35:20;;;;;;;;;8.00;4.67;;;;;;;;5000092;28;45779;-88
2023/04/27 06:37:46;;;;;;;;;5.00;4.00;;;;;;;;5016826;28;45322;-87
2023/04/27 06:40:11;;;;;;;;;8.75;7.75;;;;;;;;5034483;28;45301;-86
2023/04/27 06:42:36;;;;;;;;;10.50;8.00;;;;;;;;5035981;28;45956;-86
2023/04/27 06:45:03;;;;;;;;;7.67;5.33;;;;;;;;5011504;28;45736;-84
2023/04/27 06:47:28;;;;;;;;;8.75;7.25;;;;;;;;5030643;28;45338;-84
2023/04/27 06:49:53;;;;;;;;;5.33;3.33;;;;;;;;5016859;28;45497;-84
2023/04/27 06:52:19;;;;;;;;;4.00;4.00;;;;;;;;5030886;28;46499;-84
2023/04/27 06:54:44;;;;;;;;;11.50;7.00;;;;;;;;5016384;28;45373;-85
2023/04/27 06:57:10;;;;;;;;;10.00;7.00;;;;;;;;5016044;28;45361;-83
2023/04/27 06:59:35;;;;;;;;;4.75;1.00;;;;;;;;5018008;28;45484;-88
2023/04/27 07:02:00;;;;;;;;;4.00;3.00;;;;;;;;5019510;28;47452;-89
2023/04/27 07:04:26;;;;;;;;;10.25;5.50;;;;;;;;5035581;28;45334;-86
2023/04/27 07:06:51;;;;;;;;;8.50;6.00;;;;;;;;4997305;28;45428;-87
2023/04/27 07:09:16;;;;;;;;;2.67;2.33;;;;;;;;5003471;28;45334;-87
2023/04/27 07:11:41;;;;;;;;;7.00;7.00;;;;;;;;5027839;28;45715;-86
2023/04/27 07:14:06;;;;;;;;;9.33;8.00;;;;;;;;5035204;28;45494;-86
2023/04/27 07:16:32;;;;;;;;;4.33;4.00;;;;;;;;5017161;28;45419;-86
2023/04/27 07:18:57;;;;;;;;;5.67;3.67;;;;;;;;5018003;28;45333;-86
2023/04/27 07:21:22;;;;;;;;;6.33;3.67;;;;;;;;5017285;28;47062;-85
2023/04/27 07:23:47;;;;;;;;;5.50;3.75;;;;;;;;5031805;28;45536;-85
2023/04/27 07:26:12;;;;;;;;;7.33;4.00;;;;;;;;5032961;28;45520;-85
2023/04/27 07:28:38;;;;;;;;;8.00;7.00;;;;;;;;5031111;28;45447;-85
2023/04/27 07:31:04;;;;;;;;;5.00;4.33;;;;;;;;5015677;28;47322;-86
2023/04/27 07:33:29;;;;;;;;;10.75;5.00;;;;;;;;5028311;28;45467;-85
2023/04/27 07:35:55;;;;;;;;;9.25;5.50;;;;;;;;5016888;28;45360;-85
2023/04/27 07:38:21;;;;;;;;;8.50;5.00;;;;;;;;5035801;28;45442;-85
2023/04/27 07:40:46;;;;;;;;;5.50;4.00;;;;;;;;5017026;28;48231;-85
2023/04/27 07:43:11;;;;;;;;;4.75;4.25;;;;;;;;5034738;28;45254;-85
2023/04/27 07:45:38;;;;;;;;;9.25;4.50;;;;;;;;5008157;28;45226;-85
2023/04/27 07:48:04;;;;;;;;;8.75;4.00;;;;;;;;5028030;28;46837;-85
2023/04/27 07:50:29;;;;;;;;;8.25;4.50;;;;;;;;5018984;28;47642;-86
2023/04/27 07:53:02;;;;;;;;;8.50;6.00;;;;;;;;5018595;28;45161;-92
2023/04/27 07:55:28;;;;;;;;;9.50;6.00;;;;;;;;5033140;28;44786;-86
2023/04/27 07:57:53;;;;;;;;;7.25;5.50;;;;;;;;5011994;28;45384;-85
2023/04/27 08:00:19;;;;;;;;;8.50;4.75;;;;;;;;5024372;28;46366;-86
2023/04/27 08:02:45;;;;;;;;;9.00;4.00;;;;;;;;5003275;28;45992;-86
2023/04/27 08:05:10;;;;;;;;;7.50;5.00;;;;;;;;5019601;28;45502;-87
2023/04/27 08:07:35;;;;;;;;;8.50;4.25;;;;;;;;5001882;28;45341;-87
2023/04/27 08:10:16;;;;;;;;;8.33;6.00;;;;;;;;5001506;28;47080;-88
2023/04/27 08:12:41;;;;;;;;;5.75;4.00;;;;;;;;5014045;28;45830;-87
2023/04/27 08:15:10;;;;;;;;;4.33;4.00;;;;;;;;5021759;28;45382;-87
2023/04/27 08:17:36;;;;;;;;;10.50;4.50;;;;;;;;5018703;28;45348;-86
2023/04/27 08:20:01;;;;;;;;;4.25;3.00;;;;;;;;5014252;28;47519;-88
2023/04/27 08:22:26;;;;;;;;;5.00;4.00;;;;;;;;5015393;28;45603;-88
2023/04/27 08:24:51;;;;;;;;;7.67;4.00;;;;;;;;5018145;28;45463;-87
2023/04/27 08:27:16;;;;;;;;;6.67;4.33;;;;;;;;5019093;28;45869;-85
2023/04/27 08:29:46;;;;;;;;;4.67;4.00;;;;;;;;5018310;28;46349;-84
2023/04/27 08:32:12;;;;;;;;;8.00;3.75;;;;;;;;5018263;28;45296;-84
2023/04/27 08:34:37;;;;;;;;;5.00;2.75;;;;;;;;5018455;28;45238;-86
2023/04/27 08:37:03;;;;;;;;;7.33;3.67;;;;;;;;5017922;28;45561;-86
2023/04/27 08:39:28;;;;;;;;;6.00;4.00;;;;;;;;5000155;28;45988;-86
2023/04/27 08:41:53;;;;;;;;;3.00;3.00;;;;;;;;5000540;28;45372;-87
2023/04/27 08:44:19;;;;;;;;;8.33;3.00;;;;;;;;5000500;28;45260;-84
2023/04/27 08:46:44;;;;;;;;;6.00;4.00;;;;;;;;5000330;28;45235;-85
2023/04/27 08:49:10;;;;;;;;;6.75;5.00;;;;;;;;5017480;28;47225;-85
2023/04/27 08:51:35;;;;;;;;;4.00;4.00;;;;;;;;5018365;28;45562;-85
2023/04/27 08:54:01;;;;;;;;;6.25;3.00;;;;;;;;5000394;28;45543;-85
2023/04/27 08:56:26;;;;;;;;;3.50;3.50;;;;;;;;5018128;28;45405;-86
2023/04/27 08:58:52;;;;;;;;;4.00;3.00;;;;;;;;5017679;28;47196;-85
2023/04/27 09:01:18;;;;;;;;;2.00;2.00;;;;;;;;5017973;28;45461;-89
2023/04/27 09:03:45;;;;;;;;;4.50;3.00;;;;;;;;5001211;28;45715;-85
2023/04/27 09:06:11;;;;;;;;;5.50;3.25;;;;;;;;5017644;28;45342;-86
2023/04/27 09:08:46;;;;;;;;;4.75;2.75;;;;;;;;5016040;28;45994;-86
2023/04/27 09:11:12;;;;;;;;;3.00;3.00;;;;;;;;5018375;28;45216;-85
2023/04/27 09:13:38;;;;;;;;;2.50;1.00;;;;;;;;5038642;28;45417;-85
2023/04/27 09:16:06;;;;;;;;;5.50;3.00;;;;;;;;5038062;28;45492;-86
2023/04/27 09:18:35;;;;;;;;;8.50;4.25;;;;;;;;5019481;28;47416;-85
2023/04/27 09:21:02;;;;;;;;;4.25;3.00;;;;;;;;5025126;28;45370;-84
2023/04/27 09:23:32;;;;;;;;;5.00;2.50;;;;;;;;5016641;28;45289;-86
2023/04/27 09:25:58;;;;;;;;;5.75;5.00;;;;;;;;5017572;28;45349;-85
2023/04/27 09:28:24;;;;;;;;;8.50;4.00;;;;;;;;5017603;28;45366;-85
2023/04/27 09:30:51;;;;;;;;;8.75;4.25;;;;;;;;5017703;28;45334;-86
2023/04/27 09:33:21;;;;;;;;;4.00;3.00;;;;;;;;5017827;28;45293;-86
2023/04/27 09:35:47;;;;;;;;;1.75;0.00;;;;;;;;5017383;28;45871;-85
2023/04/27 09:38:12;;;;;;;;;4.75;2.50;;;;;;;;5016832;28;47006;-86
2023/04/27 09:40:39;;;;;;;;;3.25;3.25;;;;;;;;5017061;28;45294;-86
2023/04/27 09:43:05;;;;;;;;;3.25;3.00;;;;;;;;5017723;28;45321;-85
2023/04/27 09:45:32;;;;;;;;;2.00;0.75;;;;;;;;5017418;28;45315;-85
2023/04/27 09:47:57;;;;;;;;;3.75;3.00;;;;;;;;5017087;28;45443;-85
2023/04/27 09:50:22;;;;;;;;;3.00;2.00;;;;;;;;4999197;28;46276;-85
2023/04/27 09:52:47;;;;;;;;;3.33;3.00;;;;;;;;5016744;28;45357;-84
2023/04/27 09:55:49;;;;;;;;;;;;;;;;;;;;;
2023/04/27 09:58:14;;;;;;;;;5.25;2.50;;;;;;;;5036104;28;74806;-90
2023/04/27 10:01:01;;;;;;;;;2.75;2.75;;;;;;;;5038396;28;45348;-89
2023/04/27 10:04:02;;;;;;;;;;;;;;;;;;;;;
2023/04/27 10:06:45;;;;;;;;;3.00;2.75;;;;;;;;5023538;28;70143;-91
2023/04/27 10:09:31;;;;;;;;;4.00;2.25;;;;;;;;5018508;28;46211;-89
2023/04/27 10:12:22;;;;;;;;;2.00;1.00;;;;;;;;4988783;28;45525;-86
2023/04/27 10:15:18;;;;;;;;;2.75;2.25;;;;;;;;5037043;28;45364;-86
2023/04/27 10:17:57;;;;;;;;;2.75;2.00;;;;;;;;5010131;28;45606;-87
2023/04/27 10:20:35;;;;;;;;;1.75;1.75;;;;;;;;5036581;28;46335;-88
2023/04/27 10:23:01;;;;;;;;;5.25;2.00;;;;;;;;5032174;28;45202;-87
2023/04/27 10:25:46;;;;;;;;;;;;;;;;;;;;;
2023/04/27 10:28:35;;;;;;;;;2.75;1.50;;;;;;;;5012106;28;70450;-91
2023/04/27 10:31:08;;;;;;;;;3.50;2.00;;;;;;;;5017878;28;45579;-86
2023/04/27 10:33:51;;;;;;;;;4.25;2.00;;;;;;;;5037047;28;45311;-88
2023/04/27 10:36:16;;;;;;;;;2.00;1.50;;;;;;;;5036646;28;45427;-86
2023/04/27 10:38:42;;;;;;;;;2.50;1.00;;;;;;;;5035106;28;45345;-84
2023/04/27 10:41:12;;;;;;;;;2.00;0.00;;;;;;;;5023541;28;47080;-85
2023/04/27 10:43:40;;;;;;;;;2.75;1.25;;;;;;;;5016270;28;45537;-85
2023/04/27 10:46:08;;;;;;;;;2.50;2.00;;;;;;;;4999184;28;45489;-87
2023/04/27 10:48:34;;;;;;;;;1.75;1.75;;;;;;;;4999345;28;45341;-88
2023/04/27 10:51:00;;;;;;;;;3.00;1.00;;;;;;;;5022231;28;45530;-87
2023/04/27 10:53:25;;;;;;;;;1.25;1.25;;;;;;;;5018014;28;46101;-85
2023/04/27 10:55:54;;;;;;;;;0.25;0.00;;;;;;;;5016594;28;45423;-86
2023/04/27 10:58:22;;;;;;;;;1.00;1.00;;;;;;;;5031652;28;45512;-85
2023/04/27 11:00:50;;;;;;;;;2.25;2.00;;;;;;;;5036184;28;45472;-87
2023/04/27 11:03:18;;;;;;;;;3.25;2.00;;;;;;;;5003959;28;45703;-86
2023/04/27 11:05:44;;;;;;;;;1.00;1.00;;;;;;;;5021212;28;45324;-86
2023/04/27 11:08:10;;;;;;;;;2.00;1.00;;;;;;;;5018291;28;45369;-86
2023/04/27 11:10:45;;;;;;;;;6.00;1.25;;;;;;;;5034074;28;45669;-83
2023/04/27 11:13:14;;;;;;;;;2.25;2.00;;;;;;;;5032610;28;45359;-84
2023/04/27 11:15:43;;;;;;;;;2.50;1.50;;;;;;;;5032704;28;45317;-85
2023/04/27 11:18:09;;;;;;;;;3.25;1.75;;;;;;;;5017813;28;45569;-85
2023/04/27 11:20:34;;;;;;;;;3.00;2.00;;;;;;;;5034752;28;47190;-84
2023/04/27 11:23:00;;;;;;;;;4.00;3.00;;;;;;;;5031272;28;45695;-87
2023/04/27 11:25:28;;;;;;;;;4.00;1.50;;;;;;;;5034893;28;45629;-85
2023/04/27 11:27:54;;;;;;;;;3.75;2.00;;;;;;;;5031350;28;45491;-82
2023/04/27 11:30:20;;;;;;;;;4.75;2.00;;;;;;;;5027668;28;46453;-90
2023/04/27 11:32:46;;;;;;;;;1.50;1.50;;;;;;;;5024788;28;46129;-85
2023/04/27 11:35:12;;;;;;;;;1.00;1.00;;;;;;;;5029889;28;45450;-82
2023/04/27 11:37:37;;;;;;;;;3.50;1.75;;;;;;;;5022672;28;45620;-84
2023/04/27 11:40:03;;;;;;;;;1.00;1.00;;;;;;;;5032741;28;45543;-84
2023/04/27 11:42:29;;;;;;;;;2.00;1.00;;;;;;;;5030702;28;45768;-84
2023/04/27 11:44:56;;;;;;;;;3.00;2.00;;;;;;;;5032908;28;45755;-84
2023/04/27 11:47:22;;;;;;;;;1.00;1.00;;;;;;;;5034017;28;45479;-85
2023/04/27 11:49:53;;;;;;;;;5.25;2.00;;;;;;;;5029630;28;46044;-84
2023/04/27 11:52:19;;;;;;;;;2.75;2.00;;;;;;;;5015951;28;45362;-84
2023/04/27 11:54:52;;;;;;;;;1.75;1.00;;;;;;;;5030469;28;45375;-84
2023/04/27 11:57:23;;;;;;;;;3.50;1.00;;;;;;;;5031541;28;45482;-83
2023/04/27 11:59:48;;;;;;;;;2.75;2.00;;;;;;;;5032421;28;46065;-86
2023/04/27 12:02:14;;;;;;;;;1.67;1.67;;;;;;;;5012343;28;45362;-86
2023/04/27 12:04:39;;;;;;;;;3.00;2.00;;;;;;;;5032664;28;45365;-88
2023/04/27 12:07:04;;;;;;;;;1.00;1.00;;;;;;;;5027942;28;45388;-87
2023/04/27 12:09:29;;;;;;;;;1.67;1.67;;;;;;;;5019018;28;48177;-86
2023/04/27 12:11:55;;;;;;;;;1.67;1.00;;;;;;;;5018863;28;45336;-86
2023/04/27 12:14:20;;;;;;;;;1.00;1.00;;;;;;;;5014906;28;45555;-87
2023/04/27 12:16:46;;;;;;;;;0.33;0.33;;;;;;;;5029321;28;45416;-87
2023/04/27 12:19:11;;;;;;;;;1.50;1.00;;;;;;;;5034607;28;46576;-86
2023/04/27 12:21:38;;;;;;;;;2.00;2.00;;;;;;;;5034889;28;45434;-85
2023/04/27 12:24:04;;;;;;;;;1.00;1.00;;;;;;;;5034782;28;45286;-85
2023/04/27 12:26:29;;;;;;;;;3.00;2.50;;;;;;;;5023660;28;45865;-85
2023/04/27 12:28:55;;;;;;;;;0.67;0.67;;;;;;;;5030474;28;46042;-85
2023/04/27 12:31:23;;;;;;;;;3.67;2.00;;;;;;;;5021088;28;45512;-85
2023/04/27 12:33:51;;;;;;;;;1.75;1.00;;;;;;;;5032601;28;45434;-83
2023/04/27 12:36:16;;;;;;;;;1.00;1.00;;;;;;;;5013212;28;45643;-84
2023/04/27 12:38:42;;;;;;;;;2.25;1.00;;;;;;;;5028264;28;46317;-85
2023/04/27 12:41:07;;;;;;;;;3.00;2.75;;;;;;;;5036940;28;45461;-85
2023/04/27 12:43:34;;;;;;;;;2.00;2.00;;;;;;;;5037721;28;45419;-85
2023/04/27 12:46:00;;;;;;;;;2.75;0.25;;;;;;;;5033036;28;45638;-85
2023/04/27 12:48:25;;;;;;;;;2.00;2.00;;;;;;;;5020742;28;47253;-86
2023/04/27 12:50:51;;;;;;;;;0.25;0.25;;;;;;;;5030367;28;45358;-85
2023/04/27 12:53:16;;;;;;;;;0.75;0.25;;;;;;;;5030832;28;45343;-84
2023/04/27 12:55:41;;;;;;;;;0.00;0.00;;;;;;;;5032371;28;45445;-84
2023/04/27 12:58:06;;;;;;;;;0.67;0.00;;;;;;;;5018146;28;46301;-84
2023/04/27 13:00:33;;;;;;;;;2.00;1.67;;;;;;;;5019848;28;45447;-84
2023/04/27 13:02:58;;;;;;;;;0.75;0.75;;;;;;;;5034627;28;45735;-84
2023/04/27 13:05:23;;;;;;;;;2.75;1.00;;;;;;;;5026786;28;45714;-84
2023/04/27 13:07:49;;;;;;;;;2.00;1.00;;;;;;;;5028524;28;46405;-83
2023/04/27 13:10:14;;;;;;;;;1.00;1.00;;;;;;;;5036302;28;45937;-84
2023/04/27 13:12:39;;;;;;;;;0.00;0.00;;;;;;;;5033631;28;45436;-83
2023/04/27 13:15:06;;;;;;;;;2.50;0.75;;;;;;;;5031591;28;45301;-84
2023/04/27 13:17:31;;;;;;;;;1.00;1.00;;;;;;;;5017616;28;47304;-83
2023/04/27 13:19:57;;;;;;;;;1.00;1.00;;;;;;;;5034420;28;45403;-84
2023/04/27 13:22:22;;;;;;;;;1.00;0.00;;;;;;;;5028017;28;45397;-85
2023/04/27 13:24:47;;;;;;;;;2.00;2.00;;;;;;;;5020115;28;45475;-84
2023/04/27 13:27:12;;;;;;;;;3.00;2.00;;;;;;;;5018058;28;47476;-82
2023/04/27 13:29:37;;;;;;;;;3.00;2.75;;;;;;;;5017996;28;45633;-83
2023/04/27 13:32:03;;;;;;;;;1.33;1.00;;;;;;;;5028100;28;45483;-84
2023/04/27 13:34:29;;;;;;;;;2.00;2.00;;;;;;;;5035885;28;45368;-84
2023/04/27 13:36:54;;;;;;;;;1.75;1.75;;;;;;;;5035985;28;47253;-84
2023/04/27 13:39:20;;;;;;;;;1.25;1.00;;;;;;;;5029168;28;45491;-84
2023/04/27 13:41:46;;;;;;;;;1.00;1.00;;;;;;;;5029122;28;45368;-84
2023/04/27 13:44:11;;;;;;;;;2.00;2.00;;;;;;;;5017993;28;45375;-85
2023/04/27 13:46:36;;;;;;;;;1.00;1.00;;;;;;;;5017490;28;47079;-84
2023/04/27 13:49:01;;;;;;;;;1.00;1.00;;;;;;;;5033499;28;45432;-86
2023/04/27 13:51:29;;;;;;;;;0.75;0.75;;;;;;;;5013863;28;45322;-86
2023/04/27 13:53:55;;;;;;;;;0.50;0.50;;;;;;;;5007309;28;45378;-85
2023/04/27 13:56:20;;;;;;;;;1.00;1.00;;;;;;;;5003524;28;47007;-86
2023/04/27 13:58:45;;;;;;;;;3.00;1.33;;;;;;;;5022285;28;45482;-85
2023/04/27 14:01:11;;;;;;;;;1.25;1.25;;;;;;;;5018403;28;45624;-85
2023/04/27 14:03:39;;;;;;;;;2.00;2.00;;;;;;;;5035915;28;45551;-85
2023/04/27 14:06:05;;;;;;;;;2.00;2.00;;;;;;;;5034761;28;46255;-85
2023/04/27 14:08:30;;;;;;;;;3.75;1.00;;;;;;;;5035920;28;45274;-85
2023/04/27 14:10:55;;;;;;;;;2.00;1.75;;;;;;;;5036211;28;45345;-85
2023/04/27 14:13:21;;;;;;;;;1.00;1.00;;;;;;;;5023682;28;45457;-85
2023/04/27 14:15:46;;;;;;;;;1.00;1.00;;;;;;;;5007008;28;47386;-85
2023/04/27 14:18:11;;;;;;;;;1.33;1.33;;;;;;;;5030076;28;45210;-85
2023/04/27 14:20:39;;;;;;;;;1.00;0.25;;;;;;;;5036310;28;45573;-84
2023/04/27 14:23:04;;;;;;;;;1.00;1.00;;;;;;;;5031061;28;45529;-86
2023/04/27 14:25:33;;;;;;;;;1.25;1.25;;;;;;;;5027218;28;46604;-86
2023/04/27 14:28:09;;;;;;;;;2.25;1.00;;;;;;;;5017506;28;45843;-85
2023/04/27 14:30:34;;;;;;;;;1.00;0.75;;;;;;;;5017539;28;45468;-86
2023/04/27 14:33:00;;;;;;;;;1.33;0.33;;;;;;;;5017359;28;45470;-84
2023/04/27 14:35:26;;;;;;;;;2.00;0.00;;;;;;;;5017431;28;47250;-84
2023/04/27 14:37:51;;;;;;;;;4.00;0.50;;;;;;;;5035167;28;45283;-85
2023/04/27 14:40:17;;;;;;;;;0.33;0.33;;;;;;;;5034899;28;45404;-85
2023/04/27 14:42:42;;;;;;;;;1.00;0.00;;;;;;;;5034778;28;45440;-86